sensor_id;sensor_type;location;lat;lon;timestamp;P1;durP1;ratioP1;P2;durP2;ratioP2
58338;SDS011;68636;52.704;6.536;2023-05-10T00:00:26;14.57;;;8.95;;
58338;SDS011;68636;52.704;6.536;2023-05-10T00:02:52;12.63;;;7.97;;
58338;SDS011;68636;52.704;6.536;2023-05-10T00:05:18;16.20;;;8.95;;
58338;SDS011;68636;52.704;6.536;2023-05-10T00:07:44;14.15;;;8.77;;
58338;SDS011;68636;52.704;6.536;2023-05-10T00:10:10;16.33;;;8.82;;
58338;SDS011;68636;52.704;6.536;2023-05-10T00:12:36;18.52;;;8.98;;
58338;SDS011;68636;52.704;6.536;2023-05-10T00:15:02;15.93;;;9.38;;
58338;SDS011;68636;52.704;6.536;2023-05-10T00:17:28;16.90;;;9.37;;
58338;SDS011;68636;52.704;6.536;2023-05-10T00:19:54;18.55;;;9.70;;
58338;SDS011;68636;52.704;6.536;2023-05-10T00:22:20;17.80;;;9.98;;
58338;SDS011;68636;52.704;6.536;2023-05-10T00:24:46;19.45;;;10.38;;
58338;SDS011;68636;52.704;6.536;2023-05-10T00:27:12;15.27;;;8.98;;
58338;SDS011;68636;52.704;6.536;2023-05-10T00:29:37;16.48;;;9.90;;
58338;SDS011;68636;52.704;6.536;2023-05-10T00:32:03;17.73;;;10.20;;
58338;SDS011;68636;52.704;6.536;2023-05-10T00:34:29;17.00;;;10.35;;
58338;SDS011;68636;52.704;6.536;2023-05-10T00:36:55;17.90;;;10.30;;
58338;SDS011;68636;52.704;6.536;2023-05-10T00:39:21;18.40;;;10.05;;
58338;SDS011;68636;52.704;6.536;2023-05-10T00:41:47;17.23;;;9.50;;
58338;SDS011;68636;52.704;6.536;2023-05-10T00:44:12;15.55;;;9.27;;
58338;SDS011;68636;52.704;6.536;2023-05-10T00:46:38;18.38;;;9.20;;
58338;SDS011;68636;52.704;6.536;2023-05-10T00:49:04;15.52;;;9.18;;
58338;SDS011;68636;52.704;6.536;2023-05-10T00:51:30;16.65;;;9.75;;
58338;SDS011;68636;52.704;6.536;2023-05-10T00:53:56;18.00;;;10.10;;
58338;SDS011;68636;52.704;6.536;2023-05-10T00:56:23;18.70;;;10.18;;
58338;SDS011;68636;52.704;6.536;2023-05-10T00:58:50;16.80;;;9.40;;
58338;SDS011;68636;52.704;6.536;2023-05-10T01:01:16;17.83;;;9.68;;
58338;SDS011;68636;52.704;6.536;2023-05-10T01:03:42;15.13;;;8.90;;
58338;SDS011;68636;52.704;6.536;2023-05-10T01:06:08;16.33;;;9.20;;
58338;SDS011;68636;52.704;6.536;2023-05-10T01:08:35;14.18;;;7.55;;
58338;SDS011;68636;52.704;6.536;2023-05-10T01:11:01;15.55;;;8.77;;
58338;SDS011;68636;52.704;6.536;2023-05-10T01:13:32;14.97;;;8.43;;
58338;SDS011;68636;52.704;6.536;2023-05-10T01:16:04;14.60;;;8.55;;
58338;SDS011;68636;52.704;6.536;2023-05-10T01:37:37;13.60;;;6.45;;
58338;SDS011;68636;52.704;6.536;2023-05-10T01:42:46;14.05;;;7.28;;
58338;SDS011;68636;52.704;6.536;2023-05-10T01:45:21;13.18;;;7.10;;
58338;SDS011;68636;52.704;6.536;2023-05-10T01:48:10;11.20;;;6.57;;
58338;SDS011;68636;52.704;6.536;2023-05-10T01:50:40;13.38;;;6.72;;
58338;SDS011;68636;52.704;6.536;2023-05-10T01:53:10;10.80;;;6.15;;
58338;SDS011;68636;52.704;6.536;2023-05-10T01:55:39;11.23;;;6.40;;
58338;SDS011;68636;52.704;6.536;2023-05-10T01:58:13;11.27;;;5.93;;
58338;SDS011;68636;52.704;6.536;2023-05-10T02:00:42;10.52;;;5.72;;
58338;SDS011;68636;52.704;6.536;2023-05-10T02:03:09;11.73;;;5.72;;
58338;SDS011;68636;52.704;6.536;2023-05-10T02:05:37;9.43;;;5.40;;
58338;SDS011;68636;52.704;6.536;2023-05-10T02:08:07;11.93;;;5.97;;
58338;SDS011;68636;52.704;6.536;2023-05-10T02:10:34;12.48;;;6.07;;
58338;SDS011;68636;52.704;6.536;2023-05-10T02:13:01;11.60;;;5.90;;
58338;SDS011;68636;52.704;6.536;2023-05-10T02:15:28;9.55;;;5.50;;
58338;SDS011;68636;52.704;6.536;2023-05-10T02:17:56;13.38;;;6.15;;
58338;SDS011;68636;52.704;6.536;2023-05-10T02:20:25;10.02;;;5.28;;
58338;SDS011;68636;52.704;6.536;2023-05-10T02:22:52;10.40;;;5.70;;
58338;SDS011;68636;52.704;6.536;2023-05-10T02:25:21;10.35;;;5.63;;
58338;SDS011;68636;52.704;6.536;2023-05-10T02:27:48;12.38;;;5.43;;
58338;SDS011;68636;52.704;6.536;2023-05-10T02:30:15;13.00;;;5.55;;
58338;SDS011;68636;52.704;6.536;2023-05-10T02:32:41;10.18;;;5.10;;
58338;SDS011;68636;52.704;6.536;2023-05-10T02:35:08;9.15;;;5.15;;
58338;SDS011;68636;52.704;6.536;2023-05-10T02:37:36;9.45;;;4.90;;
58338;SDS011;68636;52.704;6.536;2023-05-10T02:40:03;8.20;;;4.90;;
58338;SDS011;68636;52.704;6.536;2023-05-10T02:42:32;9.38;;;5.18;;
58338;SDS011;68636;52.704;6.536;2023-05-10T02:45:01;9.20;;;4.93;;
58338;SDS011;68636;52.704;6.536;2023-05-10T02:47:30;8.75;;;4.57;;
58338;SDS011;68636;52.704;6.536;2023-05-10T02:49:56;7.75;;;4.13;;
58338;SDS011;68636;52.704;6.536;2023-05-10T02:52:35;9.43;;;4.95;;
58338;SDS011;68636;52.704;6.536;2023-05-10T02:55:05;9.13;;;4.10;;
58338;SDS011;68636;52.704;6.536;2023-05-10T03:02:45;9.25;;;4.30;;
58338;SDS011;68636;52.704;6.536;2023-05-10T03:05:10;7.97;;;4.38;;
58338;SDS011;68636;52.704;6.536;2023-05-10T03:07:36;8.13;;;4.70;;
58338;SDS011;68636;52.704;6.536;2023-05-10T03:10:02;9.93;;;4.80;;
58338;SDS011;68636;52.704;6.536;2023-05-10T03:20:36;8.25;;;4.47;;
58338;SDS011;68636;52.704;6.536;2023-05-10T03:26:17;9.40;;;4.70;;
58338;SDS011;68636;52.704;6.536;2023-05-10T03:28:47;9.70;;;4.82;;
58338;SDS011;68636;52.704;6.536;2023-05-10T03:31:13;7.57;;;3.75;;
58338;SDS011;68636;52.704;6.536;2023-05-10T03:33:49;8.85;;;5.13;;
58338;SDS011;68636;52.704;6.536;2023-05-10T03:36:15;12.03;;;5.07;;
58338;SDS011;68636;52.704;6.536;2023-05-10T03:38:41;9.98;;;5.10;;
58338;SDS011;68636;52.704;6.536;2023-05-10T03:41:07;11.15;;;5.22;;
58338;SDS011;68636;52.704;6.536;2023-05-10T03:43:33;9.98;;;5.10;;
58338;SDS011;68636;52.704;6.536;2023-05-10T03:46:01;12.23;;;5.38;;
58338;SDS011;68636;52.704;6.536;2023-05-10T03:48:30;9.68;;;5.22;;
58338;SDS011;68636;52.704;6.536;2023-05-10T03:53:23;8.40;;;4.30;;
58338;SDS011;68636;52.704;6.536;2023-05-10T03:55:48;11.07;;;5.57;;
58338;SDS011;68636;52.704;6.536;2023-05-10T03:58:14;10.40;;;5.78;;
58338;SDS011;68636;52.704;6.536;2023-05-10T04:00:40;10.93;;;5.82;;
58338;SDS011;68636;52.704;6.536;2023-05-10T04:03:10;12.55;;;6.32;;
58338;SDS011;68636;52.704;6.536;2023-05-10T04:05:36;10.75;;;5.47;;
58338;SDS011;68636;52.704;6.536;2023-05-10T04:08:02;13.10;;;6.25;;
58338;SDS011;68636;52.704;6.536;2023-05-10T04:10:29;11.55;;;6.10;;
58338;SDS011;68636;52.704;6.536;2023-05-10T04:12:54;11.40;;;5.78;;
58338;SDS011;68636;52.704;6.536;2023-05-10T04:15:20;9.70;;;5.50;;
58338;SDS011;68636;52.704;6.536;2023-05-10T04:17:46;10.65;;;5.50;;
58338;SDS011;68636;52.704;6.536;2023-05-10T04:20:12;11.60;;;5.82;;
58338;SDS011;68636;52.704;6.536;2023-05-10T04:22:38;9.98;;;5.55;;
58338;SDS011;68636;52.704;6.536;2023-05-10T04:25:04;10.32;;;4.97;;
58338;SDS011;68636;52.704;6.536;2023-05-10T04:27:31;10.15;;;5.00;;
58338;SDS011;68636;52.704;6.536;2023-05-10T04:29:57;10.38;;;5.03;;
58338;SDS011;68636;52.704;6.536;2023-05-10T04:32:22;10.88;;;5.30;;
58338;SDS011;68636;52.704;6.536;2023-05-10T04:34:48;9.27;;;4.82;;
58338;SDS011;68636;52.704;6.536;2023-05-10T04:39:41;15.67;;;5.67;;
58338;SDS011;68636;52.704;6.536;2023-05-10T04:42:07;10.68;;;5.15;;
58338;SDS011;68636;52.704;6.536;2023-05-10T04:44:33;9.65;;;4.85;;
58338;SDS011;68636;52.704;6.536;2023-05-10T04:46:58;10.95;;;5.10;;
58338;SDS011;68636;52.704;6.536;2023-05-10T04:49:24;9.38;;;4.82;;
58338;SDS011;68636;52.704;6.536;2023-05-10T04:51:50;8.52;;;4.47;;
58338;SDS011;68636;52.704;6.536;2023-05-10T04:54:15;9.93;;;4.80;;
58338;SDS011;68636;52.704;6.536;2023-05-10T04:56:41;10.25;;;4.38;;
58338;SDS011;68636;52.704;6.536;2023-05-10T04:59:08;10.13;;;4.35;;
58338;SDS011;68636;52.704;6.536;2023-05-10T05:01:34;9.95;;;4.60;;
58338;SDS011;68636;52.704;6.536;2023-05-10T05:03:59;10.73;;;5.38;;
58338;SDS011;68636;52.704;6.536;2023-05-10T05:06:25;9.40;;;4.28;;
58338;SDS011;68636;52.704;6.536;2023-05-10T05:08:52;12.85;;;4.35;;
58338;SDS011;68636;52.704;6.536;2023-05-10T05:11:21;10.45;;;4.45;;
58338;SDS011;68636;52.704;6.536;2023-05-10T05:13:47;10.25;;;4.93;;
58338;SDS011;68636;52.704;6.536;2023-05-10T05:16:12;10.00;;;3.88;;
58338;SDS011;68636;52.704;6.536;2023-05-10T05:18:38;9.55;;;4.60;;
58338;SDS011;68636;52.704;6.536;2023-05-10T05:21:13;10.95;;;4.20;;
58338;SDS011;68636;52.704;6.536;2023-05-10T05:23:42;9.18;;;4.40;;
58338;SDS011;68636;52.704;6.536;2023-05-10T05:26:08;11.95;;;4.32;;
58338;SDS011;68636;52.704;6.536;2023-05-10T05:28:34;8.88;;;4.22;;
58338;SDS011;68636;52.704;6.536;2023-05-10T05:31:05;9.00;;;4.35;;
58338;SDS011;68636;52.704;6.536;2023-05-10T05:33:32;9.48;;;4.68;;
58338;SDS011;68636;52.704;6.536;2023-05-10T05:36:02;8.80;;;4.47;;
58338;SDS011;68636;52.704;6.536;2023-05-10T05:38:28;10.95;;;4.57;;
58338;SDS011;68636;52.704;6.536;2023-05-10T05:40:54;12.02;;;5.18;;
58338;SDS011;68636;52.704;6.536;2023-05-10T05:43:20;10.90;;;4.75;;
58338;SDS011;68636;52.704;6.536;2023-05-10T05:45:46;11.85;;;5.30;;
58338;SDS011;68636;52.704;6.536;2023-05-10T05:48:11;11.38;;;4.63;;
58338;SDS011;68636;52.704;6.536;2023-05-10T05:50:37;11.43;;;5.30;;
58338;SDS011;68636;52.704;6.536;2023-05-10T05:53:03;12.40;;;5.13;;
58338;SDS011;68636;52.704;6.536;2023-05-10T05:55:28;10.90;;;5.80;;
58338;SDS011;68636;52.704;6.536;2023-05-10T05:57:56;12.00;;;5.15;;
58338;SDS011;68636;52.704;6.536;2023-05-10T06:00:22;12.60;;;6.03;;
58338;SDS011;68636;52.704;6.536;2023-05-10T06:02:48;11.50;;;5.32;;
58338;SDS011;68636;52.704;6.536;2023-05-10T06:05:14;11.52;;;5.30;;
58338;SDS011;68636;52.704;6.536;2023-05-10T06:07:40;14.37;;;5.20;;
58338;SDS011;68636;52.704;6.536;2023-05-10T06:10:07;15.60;;;5.22;;
58338;SDS011;68636;52.704;6.536;2023-05-10T06:12:34;12.57;;;5.55;;
58338;SDS011;68636;52.704;6.536;2023-05-10T06:15:00;15.18;;;6.18;;
58338;SDS011;68636;52.704;6.536;2023-05-10T06:17:26;14.40;;;5.88;;
58338;SDS011;68636;52.704;6.536;2023-05-10T06:19:52;12.57;;;5.35;;
58338;SDS011;68636;52.704;6.536;2023-05-10T06:22:18;11.70;;;5.35;;
58338;SDS011;68636;52.704;6.536;2023-05-10T06:24:43;13.32;;;5.00;;
58338;SDS011;68636;52.704;6.536;2023-05-10T06:27:09;11.07;;;5.03;;
58338;SDS011;68636;52.704;6.536;2023-05-10T06:29:35;12.95;;;5.03;;
58338;SDS011;68636;52.704;6.536;2023-05-10T06:32:01;10.38;;;4.53;;
58338;SDS011;68636;52.704;6.536;2023-05-10T06:34:27;14.10;;;5.20;;
58338;SDS011;68636;52.704;6.536;2023-05-10T06:36:53;13.02;;;5.35;;
58338;SDS011;68636;52.704;6.536;2023-05-10T06:39:18;10.35;;;4.82;;
58338;SDS011;68636;52.704;6.536;2023-05-10T06:41:44;14.52;;;5.70;;
58338;SDS011;68636;52.704;6.536;2023-05-10T06:44:10;9.38;;;4.57;;
58338;SDS011;68636;52.704;6.536;2023-05-10T06:46:36;10.55;;;4.82;;
58338;SDS011;68636;52.704;6.536;2023-05-10T06:49:02;12.90;;;4.90;;
58338;SDS011;68636;52.704;6.536;2023-05-10T06:51:27;10.20;;;4.35;;
58338;SDS011;68636;52.704;6.536;2023-05-10T06:53:53;10.63;;;4.32;;
58338;SDS011;68636;52.704;6.536;2023-05-10T06:56:19;15.45;;;4.70;;
58338;SDS011;68636;52.704;6.536;2023-05-10T06:58:46;9.80;;;4.50;;
58338;SDS011;68636;52.704;6.536;2023-05-10T07:01:12;13.68;;;3.78;;
58338;SDS011;68636;52.704;6.536;2023-05-10T07:03:38;10.68;;;4.00;;
58338;SDS011;68636;52.704;6.536;2023-05-10T07:06:04;13.13;;;4.63;;
58338;SDS011;68636;52.704;6.536;2023-05-10T07:08:32;10.18;;;4.55;;
58338;SDS011;68636;52.704;6.536;2023-05-10T07:11:02;10.15;;;4.28;;
58338;SDS011;68636;52.704;6.536;2023-05-10T07:13:31;10.77;;;4.20;;
58338;SDS011;68636;52.704;6.536;2023-05-10T07:15:57;9.90;;;4.10;;
58338;SDS011;68636;52.704;6.536;2023-05-10T07:18:24;12.15;;;4.68;;
58338;SDS011;68636;52.704;6.536;2023-05-10T07:20:50;10.85;;;4.43;;
58338;SDS011;68636;52.704;6.536;2023-05-10T07:23:16;10.47;;;4.37;;
58338;SDS011;68636;52.704;6.536;2023-05-10T07:25:48;12.15;;;4.88;;
58338;SDS011;68636;52.704;6.536;2023-05-10T07:28:16;10.30;;;4.47;;
58338;SDS011;68636;52.704;6.536;2023-05-10T07:30:42;8.70;;;4.15;;
58338;SDS011;68636;52.704;6.536;2023-05-10T07:33:09;10.48;;;4.20;;
58338;SDS011;68636;52.704;6.536;2023-05-10T07:38:01;8.50;;;3.53;;
58338;SDS011;68636;52.704;6.536;2023-05-10T07:40:27;10.80;;;4.00;;
58338;SDS011;68636;52.704;6.536;2023-05-10T07:42:53;11.95;;;3.70;;
58338;SDS011;68636;52.704;6.536;2023-05-10T07:45:19;8.18;;;3.10;;
58338;SDS011;68636;52.704;6.536;2023-05-10T07:47:45;10.35;;;3.88;;
58338;SDS011;68636;52.704;6.536;2023-05-10T07:50:10;8.43;;;3.55;;
58338;SDS011;68636;52.704;6.536;2023-05-10T07:52:36;7.60;;;3.63;;
58338;SDS011;68636;52.704;6.536;2023-05-10T07:55:02;9.80;;;3.80;;
58338;SDS011;68636;52.704;6.536;2023-05-10T07:57:28;9.45;;;4.05;;
58338;SDS011;68636;52.704;6.536;2023-05-10T07:59:54;9.98;;;3.80;;
58338;SDS011;68636;52.704;6.536;2023-05-10T08:02:19;9.38;;;3.47;;
58338;SDS011;68636;52.704;6.536;2023-05-10T08:04:45;11.90;;;3.28;;
58338;SDS011;68636;52.704;6.536;2023-05-10T08:07:11;7.88;;;3.40;;
58338;SDS011;68636;52.704;6.536;2023-05-10T08:09:37;7.15;;;2.78;;
58338;SDS011;68636;52.704;6.536;2023-05-10T08:12:02;8.15;;;2.75;;
58338;SDS011;68636;52.704;6.536;2023-05-10T08:14:28;7.82;;;2.58;;
58338;SDS011;68636;52.704;6.536;2023-05-10T08:16:55;5.80;;;2.08;;
58338;SDS011;68636;52.704;6.536;2023-05-10T08:19:21;5.30;;;1.83;;
58338;SDS011;68636;52.704;6.536;2023-05-10T08:21:47;6.72;;;1.50;;
58338;SDS011;68636;52.704;6.536;2023-05-10T08:24:13;5.35;;;1.60;;
58338;SDS011;68636;52.704;6.536;2023-05-10T08:26:39;4.03;;;1.65;;
58338;SDS011;68636;52.704;6.536;2023-05-10T08:29:05;5.05;;;1.77;;
58338;SDS011;68636;52.704;6.536;2023-05-10T08:31:30;4.70;;;1.90;;
58338;SDS011;68636;52.704;6.536;2023-05-10T08:33:56;7.30;;;1.30;;
58338;SDS011;68636;52.704;6.536;2023-05-10T08:36:22;4.47;;;1.70;;
58338;SDS011;68636;52.704;6.536;2023-05-10T08:41:22;4.38;;;2.03;;
58338;SDS011;68636;52.704;6.536;2023-05-10T08:43:54;6.85;;;2.00;;
58338;SDS011;68636;52.704;6.536;2023-05-10T08:46:21;5.00;;;2.05;;
58338;SDS011;68636;52.704;6.536;2023-05-10T08:48:48;3.67;;;1.45;;
58338;SDS011;68636;52.704;6.536;2023-05-10T08:51:19;4.88;;;1.60;;
58338;SDS011;68636;52.704;6.536;2023-05-10T08:53:47;5.00;;;1.23;;
58338;SDS011;68636;52.704;6.536;2023-05-10T08:56:13;5.70;;;1.42;;
58338;SDS011;68636;52.704;6.536;2023-05-10T08:58:40;4.30;;;1.77;;
58338;SDS011;68636;52.704;6.536;2023-05-10T09:01:06;4.57;;;1.40;;
58338;SDS011;68636;52.704;6.536;2023-05-10T09:06:00;6.00;;;1.58;;
58338;SDS011;68636;52.704;6.536;2023-05-10T09:08:26;5.67;;;1.70;;
58338;SDS011;68636;52.704;6.536;2023-05-10T09:10:52;2.67;;;1.10;;
58338;SDS011;68636;52.704;6.536;2023-05-10T09:13:20;3.70;;;1.38;;
58338;SDS011;68636;52.704;6.536;2023-05-10T09:15:48;5.28;;;1.58;;
58338;SDS011;68636;52.704;6.536;2023-05-10T09:18:14;3.60;;;1.17;;
58338;SDS011;68636;52.704;6.536;2023-05-10T09:20:41;2.90;;;1.20;;
58338;SDS011;68636;52.704;6.536;2023-05-10T09:23:07;6.57;;;1.63;;
58338;SDS011;68636;52.704;6.536;2023-05-10T09:25:33;4.55;;;1.80;;
58338;SDS011;68636;52.704;6.536;2023-05-10T09:27:59;4.90;;;1.88;;
58338;SDS011;68636;52.704;6.536;2023-05-10T09:30:26;5.57;;;1.70;;
58338;SDS011;68636;52.704;6.536;2023-05-10T09:32:53;5.15;;;1.58;;
58338;SDS011;68636;52.704;6.536;2023-05-10T09:35:21;4.75;;;1.50;;
58338;SDS011;68636;52.704;6.536;2023-05-10T09:37:49;5.32;;;1.83;;
58338;SDS011;68636;52.704;6.536;2023-05-10T09:40:20;5.60;;;2.22;;
58338;SDS011;68636;52.704;6.536;2023-05-10T09:45:18;6.43;;;1.92;;
58338;SDS011;68636;52.704;6.536;2023-05-10T09:47:45;5.70;;;2.00;;
58338;SDS011;68636;52.704;6.536;2023-05-10T09:50:11;6.38;;;2.70;;
58338;SDS011;68636;52.704;6.536;2023-05-10T09:52:50;6.03;;;2.47;;
58338;SDS011;68636;52.704;6.536;2023-05-10T09:55:19;8.27;;;3.13;;
58338;SDS011;68636;52.704;6.536;2023-05-10T09:57:49;6.22;;;3.03;;
58338;SDS011;68636;52.704;6.536;2023-05-10T10:00:24;7.28;;;3.13;;
58338;SDS011;68636;52.704;6.536;2023-05-10T10:02:58;7.03;;;2.95;;
58338;SDS011;68636;52.704;6.536;2023-05-10T10:05:31;6.38;;;2.88;;
58338;SDS011;68636;52.704;6.536;2023-05-10T10:07:58;8.98;;;3.60;;
58338;SDS011;68636;52.704;6.536;2023-05-10T10:10:25;9.32;;;4.07;;
58338;SDS011;68636;52.704;6.536;2023-05-10T10:12:51;6.93;;;3.17;;
58338;SDS011;68636;52.704;6.536;2023-05-10T10:15:18;7.97;;;3.80;;
58338;SDS011;68636;52.704;6.536;2023-05-10T10:17:45;7.75;;;4.00;;
58338;SDS011;68636;52.704;6.536;2023-05-10T10:20:13;8.90;;;3.95;;
58338;SDS011;68636;52.704;6.536;2023-05-10T10:25:05;11.07;;;4.20;;
58338;SDS011;68636;52.704;6.536;2023-05-10T10:33:24;11.32;;;4.75;;
58338;SDS011;68636;52.704;6.536;2023-05-10T10:36:09;10.27;;;5.30;;
58338;SDS011;68636;52.704;6.536;2023-05-10T10:41:27;11.25;;;6.13;;
58338;SDS011;68636;52.704;6.536;2023-05-10T10:49:37;11.05;;;5.50;;
58338;SDS011;68636;52.704;6.536;2023-05-10T10:55:05;10.40;;;5.38;;
58338;SDS011;68636;52.704;6.536;2023-05-10T11:03:03;9.07;;;5.00;;
58338;SDS011;68636;52.704;6.536;2023-05-10T11:05:48;10.10;;;4.95;;
58338;SDS011;68636;52.704;6.536;2023-05-10T11:08:17;9.93;;;4.95;;
58338;SDS011;68636;52.704;6.536;2023-05-10T11:16:21;9.60;;;4.78;;
58338;SDS011;68636;52.704;6.536;2023-05-10T11:19:02;10.50;;;5.18;;
58338;SDS011;68636;52.704;6.536;2023-05-10T11:21:29;10.63;;;5.22;;
58338;SDS011;68636;52.704;6.536;2023-05-10T11:23:56;10.02;;;5.53;;
58338;SDS011;68636;52.704;6.536;2023-05-10T11:26:34;7.70;;;4.80;;
58338;SDS011;68636;52.704;6.536;2023-05-10T11:29:00;9.18;;;5.03;;
58338;SDS011;68636;52.704;6.536;2023-05-10T11:31:27;9.82;;;5.13;;
58338;SDS011;68636;52.704;6.536;2023-05-10T11:33:57;10.75;;;5.60;;
58338;SDS011;68636;52.704;6.536;2023-05-10T11:36:27;9.30;;;5.40;;
58338;SDS011;68636;52.704;6.536;2023-05-10T11:38:54;11.52;;;5.80;;
58338;SDS011;68636;52.704;6.536;2023-05-10T11:41:21;10.70;;;5.90;;
58338;SDS011;68636;52.704;6.536;2023-05-10T11:46:21;7.80;;;4.30;;
58338;SDS011;68636;52.704;6.536;2023-05-10T11:48:49;12.02;;;5.78;;
58338;SDS011;68636;52.704;6.536;2023-05-10T11:51:19;9.85;;;5.15;;
58338;SDS011;68636;52.704;6.536;2023-05-10T11:53:50;10.00;;;5.90;;
58338;SDS011;68636;52.704;6.536;2023-05-10T11:56:17;10.75;;;5.32;;
58338;SDS011;68636;52.704;6.536;2023-05-10T11:58:43;10.68;;;6.00;;
58338;SDS011;68636;52.704;6.536;2023-05-10T12:01:10;12.73;;;6.13;;
58338;SDS011;68636;52.704;6.536;2023-05-10T12:03:36;11.52;;;5.53;;
58338;SDS011;68636;52.704;6.536;2023-05-10T12:06:03;11.23;;;5.85;;
58338;SDS011;68636;52.704;6.536;2023-05-10T12:08:29;9.02;;;5.45;;
58338;SDS011;68636;52.704;6.536;2023-05-10T12:11:09;10.98;;;6.05;;
58338;SDS011;68636;52.704;6.536;2023-05-10T12:13:42;13.45;;;6.25;;
58338;SDS011;68636;52.704;6.536;2023-05-10T12:16:15;8.70;;;5.03;;
58338;SDS011;68636;52.704;6.536;2023-05-10T12:18:42;8.70;;;4.70;;
58338;SDS011;68636;52.704;6.536;2023-05-10T12:21:12;8.93;;;3.40;;
58338;SDS011;68636;52.704;6.536;2023-05-10T12:23:38;9.50;;;4.57;;
58338;SDS011;68636;52.704;6.536;2023-05-10T12:26:04;8.45;;;4.50;;
58338;SDS011;68636;52.704;6.536;2023-05-10T12:28:31;9.63;;;4.28;;
58338;SDS011;68636;52.704;6.536;2023-05-10T12:31:01;9.75;;;4.28;;
58338;SDS011;68636;52.704;6.536;2023-05-10T12:33:27;7.25;;;3.53;;
58338;SDS011;68636;52.704;6.536;2023-05-10T12:36:01;9.15;;;3.78;;
58338;SDS011;68636;52.704;6.536;2023-05-10T12:38:28;6.10;;;2.63;;
58338;SDS011;68636;52.704;6.536;2023-05-10T12:41:06;7.10;;;3.30;;
58338;SDS011;68636;52.704;6.536;2023-05-10T12:43:34;6.50;;;3.53;;
58338;SDS011;68636;52.704;6.536;2023-05-10T12:46:07;8.00;;;4.10;;
58338;SDS011;68636;52.704;6.536;2023-05-10T12:48:34;12.15;;;5.65;;
58338;SDS011;68636;52.704;6.536;2023-05-10T12:51:07;12.52;;;5.40;;
58338;SDS011;68636;52.704;6.536;2023-05-10T12:53:34;11.90;;;4.65;;
58338;SDS011;68636;52.704;6.536;2023-05-10T12:56:01;9.13;;;5.25;;
58338;SDS011;68636;52.704;6.536;2023-05-10T12:58:27;10.13;;;5.60;;
58338;SDS011;68636;52.704;6.536;2023-05-10T13:00:53;9.85;;;5.57;;
58338;SDS011;68636;52.704;6.536;2023-05-10T13:03:19;10.63;;;5.95;;
58338;SDS011;68636;52.704;6.536;2023-05-10T13:05:45;13.40;;;6.87;;
58338;SDS011;68636;52.704;6.536;2023-05-10T13:08:11;11.07;;;6.43;;
58338;SDS011;68636;52.704;6.536;2023-05-10T13:10:36;11.90;;;6.77;;
58338;SDS011;68636;52.704;6.536;2023-05-10T13:13:02;13.18;;;6.88;;
58338;SDS011;68636;52.704;6.536;2023-05-10T13:15:28;12.57;;;7.17;;
58338;SDS011;68636;52.704;6.536;2023-05-10T13:17:54;13.00;;;7.13;;
58338;SDS011;68636;52.704;6.536;2023-05-10T13:20:20;11.60;;;6.43;;
58338;SDS011;68636;52.704;6.536;2023-05-10T13:22:46;13.90;;;6.25;;
58338;SDS011;68636;52.704;6.536;2023-05-10T13:25:12;16.37;;;6.70;;
58338;SDS011;68636;52.704;6.536;2023-05-10T13:27:39;11.03;;;4.93;;
58338;SDS011;68636;52.704;6.536;2023-05-10T13:30:06;11.68;;;6.63;;
58338;SDS011;68636;52.704;6.536;2023-05-10T13:32:32;14.25;;;6.97;;
58338;SDS011;68636;52.704;6.536;2023-05-10T13:34:58;11.90;;;6.93;;
58338;SDS011;68636;52.704;6.536;2023-05-10T13:37:24;12.03;;;6.50;;
58338;SDS011;68636;52.704;6.536;2023-05-10T13:39:50;12.17;;;7.27;;
58338;SDS011;68636;52.704;6.536;2023-05-10T13:42:15;13.03;;;6.77;;
58338;SDS011;68636;52.704;6.536;2023-05-10T13:44:42;11.85;;;6.38;;
58338;SDS011;68636;52.704;6.536;2023-05-10T13:47:10;11.82;;;6.13;;
58338;SDS011;68636;52.704;6.536;2023-05-10T13:49:36;12.05;;;6.70;;
58338;SDS011;68636;52.704;6.536;2023-05-10T13:52:02;12.95;;;5.72;;
58338;SDS011;68636;52.704;6.536;2023-05-10T13:54:32;14.32;;;6.65;;
58338;SDS011;68636;52.704;6.536;2023-05-10T13:56:59;10.98;;;5.97;;
58338;SDS011;68636;52.704;6.536;2023-05-10T13:59:25;11.63;;;6.00;;
58338;SDS011;68636;52.704;6.536;2023-05-10T14:01:50;12.45;;;5.68;;
58338;SDS011;68636;52.704;6.536;2023-05-10T14:04:16;10.85;;;4.80;;
58338;SDS011;68636;52.704;6.536;2023-05-10T14:06:42;10.25;;;4.80;;
58338;SDS011;68636;52.704;6.536;2023-05-10T14:09:08;10.40;;;5.03;;
58338;SDS011;68636;52.704;6.536;2023-05-10T14:11:33;12.20;;;5.35;;
58338;SDS011;68636;52.704;6.536;2023-05-10T14:13:59;8.73;;;4.40;;
58338;SDS011;68636;52.704;6.536;2023-05-10T14:16:25;10.10;;;4.50;;
58338;SDS011;68636;52.704;6.536;2023-05-10T14:18:52;9.90;;;4.57;;
58338;SDS011;68636;52.704;6.536;2023-05-10T14:21:17;10.77;;;5.53;;
58338;SDS011;68636;52.704;6.536;2023-05-10T14:23:43;9.65;;;4.90;;
58338;SDS011;68636;52.704;6.536;2023-05-10T14:26:09;9.83;;;5.07;;
58338;SDS011;68636;52.704;6.536;2023-05-10T14:28:34;10.40;;;5.40;;
58338;SDS011;68636;52.704;6.536;2023-05-10T14:31:00;13.25;;;5.28;;
58338;SDS011;68636;52.704;6.536;2023-05-10T14:33:26;11.13;;;5.78;;
58338;SDS011;68636;52.704;6.536;2023-05-10T14:35:53;9.87;;;5.10;;
58338;SDS011;68636;52.704;6.536;2023-05-10T14:38:21;12.85;;;5.70;;
58338;SDS011;68636;52.704;6.536;2023-05-10T14:40:47;9.95;;;5.28;;
58338;SDS011;68636;52.704;6.536;2023-05-10T14:43:13;11.37;;;5.60;;
58338;SDS011;68636;52.704;6.536;2023-05-10T14:45:38;11.73;;;5.77;;
58338;SDS011;68636;52.704;6.536;2023-05-10T14:48:04;10.37;;;5.30;;
58338;SDS011;68636;52.704;6.536;2023-05-10T14:50:31;10.55;;;5.22;;
58338;SDS011;68636;52.704;6.536;2023-05-10T14:52:57;10.25;;;5.18;;
58338;SDS011;68636;52.704;6.536;2023-05-10T14:55:24;12.02;;;5.20;;
58338;SDS011;68636;52.704;6.536;2023-05-10T14:57:49;11.95;;;5.05;;
58338;SDS011;68636;52.704;6.536;2023-05-10T15:00:15;13.00;;;5.70;;
58338;SDS011;68636;52.704;6.536;2023-05-10T15:02:42;11.60;;;5.65;;
58338;SDS011;68636;52.704;6.536;2023-05-10T15:05:07;12.13;;;5.38;;
58338;SDS011;68636;52.704;6.536;2023-05-10T15:07:33;10.85;;;5.07;;
58338;SDS011;68636;52.704;6.536;2023-05-10T15:09:59;10.37;;;5.30;;
58338;SDS011;68636;52.704;6.536;2023-05-10T15:12:25;14.17;;;6.07;;
58338;SDS011;68636;52.704;6.536;2023-05-10T15:14:51;12.80;;;6.05;;
58338;SDS011;68636;52.704;6.536;2023-05-10T15:17:16;13.30;;;5.97;;
58338;SDS011;68636;52.704;6.536;2023-05-10T15:19:42;11.95;;;6.13;;
58338;SDS011;68636;52.704;6.536;2023-05-10T15:22:08;12.30;;;5.93;;
58338;SDS011;68636;52.704;6.536;2023-05-10T15:24:34;13.80;;;5.90;;
58338;SDS011;68636;52.704;6.536;2023-05-10T15:26:59;13.20;;;5.80;;
58338;SDS011;68636;52.704;6.536;2023-05-10T15:29:25;11.93;;;6.10;;
58338;SDS011;68636;52.704;6.536;2023-05-10T15:31:51;13.27;;;6.28;;
58338;SDS011;68636;52.704;6.536;2023-05-10T15:34:17;14.60;;;5.93;;
58338;SDS011;68636;52.704;6.536;2023-05-10T15:36:44;10.38;;;5.93;;
58338;SDS011;68636;52.704;6.536;2023-05-10T15:39:10;12.57;;;6.53;;
58338;SDS011;68636;52.704;6.536;2023-05-10T15:44:02;13.90;;;5.87;;
58338;SDS011;68636;52.704;6.536;2023-05-10T15:46:28;15.32;;;6.78;;
58338;SDS011;68636;52.704;6.536;2023-05-10T15:48:55;15.30;;;6.40;;
58338;SDS011;68636;52.704;6.536;2023-05-10T15:51:21;12.70;;;6.55;;
58338;SDS011;68636;52.704;6.536;2023-05-10T15:53:47;14.45;;;6.05;;
58338;SDS011;68636;52.704;6.536;2023-05-10T15:56:13;13.20;;;6.40;;
58338;SDS011;68636;52.704;6.536;2023-05-10T15:58:39;13.23;;;6.37;;
58338;SDS011;68636;52.704;6.536;2023-05-10T16:01:05;13.57;;;6.68;;
58338;SDS011;68636;52.704;6.536;2023-05-10T16:03:31;13.52;;;6.80;;
58338;SDS011;68636;52.704;6.536;2023-05-10T16:05:57;12.18;;;6.55;;